Time;durP1;ratioP1;P1;durP2;ratioP2;P2;SDS_P1;SDS_P2;PMS_P1;PMS_P2;Temp;Humidity;BMP_temperature;BMP_pressure;BME280_temperature;BME280_humidity;BME280_pressure;Samples;Min_cycle;Max_cycle;Signal;HPM_P1;HPM_P2
2022/07/09 00:00:03;;;;;;;;;;;27.90;44.20;;;;;;673566;29;1325;-89
2022/07/09 00:00:24;;;;;;;;;;;27.90;42.50;;;;;;673021;29;1204;-90
2022/07/09 00:00:44;;;;;;;;;;;27.90;44.00;;;;;;670678;29;1403;-88
2022/07/09 00:01:05;;;;;;;;;;;27.90;43.10;;;;;;673185;29;1393;-89
2022/07/09 00:01:25;;;;;;;;;;;27.90;43.30;;;;;;671091;29;1196;-89
2022/07/09 00:01:46;;;;;;;;;;;27.90;44.00;;;;;;671119;29;1229;-90
2022/07/09 00:02:06;;;;;;;;;;;27.90;43.30;;;;;;673300;29;1298;-89
2022/07/09 00:02:27;;;;;;;;;;;27.90;44.40;;;;;;673314;29;1374;-89
2022/07/09 00:02:48;;;;;;;;;;;28.60;44.00;;;;;;673385;29;1233;-89
2022/07/09 00:03:08;;;;;;;;;;;27.90;43.80;;;;;;670769;29;1203;-90
2022/07/09 00:03:29;;;;;;;;;;;27.80;44.20;;;;;;671075;29;1399;-89
2022/07/09 00:03:51;;;;;;;;;;;27.90;42.90;;;;;;670959;29;1332;-89
2022/07/09 00:04:12;;;;;;;;;;;27.90;44.50;;;;;;672602;29;1102;-89
2022/07/09 00:04:33;;;;;;;;;;;27.80;44.60;;;;;;669328;29;1311;-88
2022/07/09 00:04:53;;;;;;;;;;;27.90;44.20;;;;;;667046;29;1223;-89
2022/07/09 00:05:16;;;;;;;;;;;27.90;44.00;;;;;;669613;29;1199;-89
2022/07/09 00:05:37;;;;;;;;;;;28.10;42.10;;;;;;667508;29;1345;-89
2022/07/09 00:05:57;;;;;;;;;;;27.90;43.70;;;;;;669822;29;1384;-90
2022/07/09 00:06:18;;;;;;;;;;;27.90;44.10;;;;;;672554;29;1480;-90
2022/07/09 00:06:39;;;;;;;;;;;27.90;42.70;;;;;;671809;29;1405;-88
2022/07/09 00:07:00;;;;;;;;;;;27.80;44.20;;;;;;668620;29;1109;-89
2022/07/09 00:07:20;;;;;;;;;;;27.90;42.70;;;;;;666942;29;1229;-89
2022/07/09 00:07:41;;;;;;;;;;;27.90;44.30;;;;;;671806;29;1311;-89
2022/07/09 00:08:02;;;;;;;;;;;27.90;46.20;;;;;;671928;29;1429;-89
2022/07/09 00:08:22;;;;;;;;;;;27.90;44.20;;;;;;672132;29;1200;-89
2022/07/09 00:08:43;;;;;;;;;;;27.90;44.40;;;;;;674593;29;1106;-89
2022/07/09 00:09:03;;;;;;;;;;;27.80;44.40;;;;;;674405;29;1234;-89
2022/07/09 00:09:24;;;;;;;;;;;27.80;44.20;;;;;;671594;29;1120;-88
2022/07/09 00:09:45;;;;;;;;;;;27.90;43.30;;;;;;671755;29;1219;-89
2022/07/09 00:10:05;;;;;;;;;;;27.90;43.60;;;;;;669962;29;1231;-88
2022/07/09 00:10:26;;;;;;;;;;;27.90;43.00;;;;;;672815;29;1210;-88
2022/07/09 00:10:47;;;;;;;;;;;27.90;43.50;;;;;;670316;29;1089;-88
2022/07/09 00:11:07;;;;;;;;;;;27.80;44.00;;;;;;670360;29;1182;-89
2022/07/09 00:11:28;;;;;;;;;;;27.80;43.70;;;;;;670281;29;1358;-90
2022/07/09 00:11:50;;;;;;;;;;;28.00;44.70;;;;;;667842;29;1227;-90
2022/07/09 00:12:10;;;;;;;;;;;27.90;44.20;;;;;;667654;29;1489;-90
2022/07/09 00:12:31;;;;;;;;;;;28.10;44.10;;;;;;668216;29;1257;-89
2022/07/09 00:12:51;;;;;;;;;;;27.90;42.80;;;;;;672758;29;1342;-88
2022/07/09 00:13:12;;;;;;;;;;;27.90;44.30;;;;;;670738;29;1347;-88
2022/07/09 00:13:32;;;;;;;;;;;27.90;43.60;;;;;;670889;29;1329;-89
2022/07/09 00:13:53;;;;;;;;;;;27.90;43.80;;;;;;673414;29;1368;-89
2022/07/09 00:14:14;;;;;;;;;;;28.00;43.40;;;;;;673191;29;1352;-89
2022/07/09 00:14:34;;;;;;;;;;;27.40;43.60;;;;;;672571;29;1297;-88
2022/07/09 00:14:55;;;;;;;;;;;27.90;43.90;;;;;;672605;29;1308;-89
2022/07/09 00:15:15;;;;;;;;;;;27.90;44.60;;;;;;674086;29;1176;-89
2022/07/09 00:15:36;;;;;;;;;;;28.00;43.40;;;;;;676103;29;1363;-89
2022/07/09 00:15:57;;;;;;;;;;;27.90;42.50;;;;;;674638;29;1387;-88
2022/07/09 00:16:17;;;;;;;;;;;28.00;43.40;;;;;;674173;29;1386;-89
2022/07/09 00:16:38;;;;;;;;;;;28.00;44.30;;;;;;671806;29;1347;-88
2022/07/09 00:16:58;;;;;;;;;;;28.00;44.00;;;;;;671574;29;1361;-89
2022/07/09 00:17:19;;;;;;;;;;;28.00;44.70;;;;;;669957;29;1239;-89
2022/07/09 00:17:40;;;;;;;;;;;28.00;43.30;;;;;;668984;29;1957;-88
2022/07/09 00:18:00;;;;;;;;;;;27.90;42.70;;;;;;671462;29;1264;-89
2022/07/09 00:18:21;;;;;;;;;;;28.00;44.40;;;;;;671835;29;895;-87
2022/07/09 00:18:41;;;;;;;;;;;28.00;44.00;;;;;;671217;29;1242;-87
2022/07/09 00:19:02;;;;;;;;;;;28.00;44.70;;;;;;671354;29;1117;-89
2022/07/09 00:19:23;;;;;;;;;;;27.90;42.30;;;;;;668698;29;1271;-88
2022/07/09 00:19:43;;;;;;;;;;;28.00;43.60;;;;;;666304;29;1294;-88
2022/07/09 00:20:05;;;;;;;;;;;28.00;43.80;;;;;;668376;29;1415;-88
2022/07/09 00:20:25;;;;;;;;;;;28.00;43.60;;;;;;668643;29;1211;-89
2022/07/09 00:20:46;;;;;;;;;;;28.00;43.30;;;;;;668391;29;1481;-87
2022/07/09 00:21:07;;;;;;;;;;;28.00;42.90;;;;;;671054;29;1293;-89
2022/07/09 00:21:27;;;;;;;;;;;28.00;43.70;;;;;;670917;29;1314;-88
2022/07/09 00:21:48;;;;;;;;;;;28.00;44.10;;;;;;672649;29;1432;-88
2022/07/09 00:22:08;;;;;;;;;;;28.00;44.70;;;;;;672809;29;1171;-87
2022/07/09 00:22:29;;;;;;;;;;;28.00;43.80;;;;;;670390;29;1292;-88
2022/07/09 00:22:50;;;;;;;;;;;28.00;42.50;;;;;;668166;29;1220;-88
2022/07/09 00:23:11;;;;;;;;;;;28.00;44.20;;;;;;670329;29;1582;-88
2022/07/09 00:23:31;;;;;;;;;;;28.00;43.60;;;;;;670523;29;1269;-88
2022/07/09 00:23:52;;;;;;;;;;;28.00;44.20;;;;;;670515;29;1382;-88
2022/07/09 00:24:12;;;;;;;;;;;28.00;43.30;;;;;;670536;29;1314;-88
2022/07/09 00:24:33;;;;;;;;;;;28.00;43.20;;;;;;670780;29;1213;-88
2022/07/09 00:24:53;;;;;;;;;;;27.10;43.10;;;;;;670307;29;1319;-88
2022/07/09 00:25:14;;;;;;;;;;;28.00;44.50;;;;;;670139;29;1228;-88
2022/07/09 00:25:35;;;;;;;;;;;28.00;42.90;;;;;;670779;29;1175;-87
2022/07/09 00:25:55;;;;;;;;;;;28.00;44.60;;;;;;671254;29;1156;-88
2022/07/09 00:26:18;;;;;;;;;;;28.00;43.00;;;;;;670400;29;1522;-87
2022/07/09 00:26:38;;;;;;;;;;;28.00;42.70;;;;;;672731;29;1404;-88
2022/07/09 00:26:59;;;;;;;;;;;28.00;42.40;;;;;;672424;29;1373;-88
2022/07/09 00:27:20;;;;;;;;;;;28.00;43.60;;;;;;672774;29;1311;-88
2022/07/09 00:27:40;;;;;;;;;;;28.00;43.20;;;;;;672619;29;1329;-88
2022/07/09 00:28:01;;;;;;;;;;;28.00;43.40;;;;;;670211;29;1244;-88
2022/07/09 00:28:21;;;;;;;;;;;26.90;43.10;;;;;;670336;29;1273;-88
2022/07/09 00:28:42;;;;;;;;;;;28.00;43.80;;;;;;672926;29;1400;-87
2022/07/09 00:29:03;;;;;;;;;;;28.00;43.30;;;;;;670171;29;1372;-88
2022/07/09 00:29:23;;;;;;;;;;;28.00;42.80;;;;;;669788;29;1206;-88
2022/07/09 00:29:44;;;;;;;;;;;28.00;44.40;;;;;;670447;29;1200;-88
2022/07/09 00:30:04;;;;;;;;;;;28.00;44.10;;;;;;670154;29;1184;-88
2022/07/09 00:30:25;;;;;;;;;;;28.00;42.00;;;;;;670010;29;1417;-87
2022/07/09 00:30:46;;;;;;;;;;;28.00;42.30;;;;;;670461;29;1267;-88
2022/07/09 00:31:07;;;;;;;;;;;28.10;43.30;;;;;;670340;29;1562;-87
2022/07/09 00:31:27;;;;;;;;;;;28.10;43.80;;;;;;669846;29;1136;-90
2022/07/09 00:31:48;;;;;;;;;;;28.10;42.80;;;;;;667922;29;818;-88
2022/07/09 00:32:09;;;;;;;;;;;28.00;42.80;;;;;;667860;29;1242;-88
2022/07/09 00:32:29;;;;;;;;;;;28.00;43.50;;;;;;667657;29;1306;-88
2022/07/09 00:32:52;;;;;;;;;;;28.10;42.80;;;;;;665391;29;1120;-88
2022/07/09 00:33:13;;;;;;;;;;;28.00;42.20;;;;;;667467;29;1418;-87
2022/07/09 00:33:33;;;;;;;;;;;28.00;45.50;;;;;;667062;29;1356;-88
2022/07/09 00:33:54;;;;;;;;;;;28.00;43.80;;;;;;668116;29;1137;-88
2022/07/09 00:34:15;;;;;;;;;;;28.00;44.90;;;;;;668006;29;1102;-88
2022/07/09 00:34:35;;;;;;;;;;;30.00;47.50;;;;;;670658;29;1203;-88
2022/07/09 00:34:56;;;;;;;;;;;28.00;43.20;;;;;;670157;29;1234;-88
2022/07/09 00:35:16;;;;;;;;;;;28.00;43.20;;;;;;670075;29;1096;-88
2022/07/09 00:35:37;;;;;;;;;;;28.10;43.20;;;;;;667503;29;1360;-88
2022/07/09 00:35:57;;;;;;;;;;;28.10;42.80;;;;;;667885;29;1355;-89
2022/07/09 00:36:18;;;;;;;;;;;27.00;42.80;;;;;;670116;29;1133;-89
2022/07/09 00:36:38;;;;;;;;;;;28.00;43.70;;;;;;670254;29;1331;-88
2022/07/09 00:36:59;;;;;;;;;;;28.00;43.80;;;;;;672565;29;1396;-88
2022/07/09 00:37:20;;;;;;;;;;;28.00;42.50;;;;;;672713;29;1490;-87
2022/07/09 00:37:40;;;;;;;;;;;28.00;44.30;;;;;;670393;29;1907;-88
2022/07/09 00:38:01;;;;;;;;;;;28.00;43.30;;;;;;671106;29;1332;-88
2022/07/09 00:38:22;;;;;;;;;;;26.00;42.10;;;;;;673220;29;1116;-87
2022/07/09 00:38:42;;;;;;;;;;;28.00;42.60;;;;;;670230;29;1248;-87
2022/07/09 00:39:03;;;;;;;;;;;28.10;43.20;;;;;;670601;29;1434;-88
2022/07/09 00:39:24;;;;;;;;;;;28.00;43.60;;;;;;670938;29;1372;-88
2022/07/09 00:39:44;;;;;;;;;;;28.00;44.70;;;;;;670585;29;1209;-88
2022/07/09 00:40:05;;;;;;;;;;;27.70;42.90;;;;;;668223;29;1248;-88
2022/07/09 00:40:26;;;;;;;;;;;28.00;42.00;;;;;;668369;29;1401;-88
2022/07/09 00:40:46;;;;;;;;;;;28.00;42.30;;;;;;670469;29;1239;-88
2022/07/09 00:41:07;;;;;;;;;;;28.20;43.60;;;;;;670674;29;1196;-87
2022/07/09 00:41:27;;;;;;;;;;;28.00;43.90;;;;;;671106;29;848;-90
2022/07/09 00:41:48;;;;;;;;;;;28.10;43.50;;;;;;670894;29;1551;-87
2022/07/09 00:42:09;;;;;;;;;;;28.00;44.00;;;;;;670972;29;1109;-89
2022/07/09 00:42:31;;;;;;;;;;;28.00;43.50;;;;;;673354;29;1218;-88
2022/07/09 00:42:52;;;;;;;;;;;28.10;43.00;;;;;;670757;29;1386;-88
2022/07/09 00:43:20;;;;;;;;;;;28.00;43.10;;;;;;670621;29;1171;-88
2022/07/09 00:43:45;;;;;;;;;;;28.00;41.50;;;;;;672119;29;1306;-89
2022/07/09 00:44:06;;;;;;;;;;;28.10;42.10;;;;;;672741;29;1278;-88
2022/07/09 00:44:27;;;;;;;;;;;28.10;43.40;;;;;;668771;29;1225;-89
2022/07/09 00:44:47;;;;;;;;;;;28.00;43.80;;;;;;668228;29;832;-89
2022/07/09 00:45:08;;;;;;;;;;;28.00;43.40;;;;;;668032;29;1445;-89
2022/07/09 00:45:28;;;;;;;;;;;28.10;43.80;;;;;;670698;29;1254;-88
2022/07/09 00:45:49;;;;;;;;;;;28.00;43.20;;;;;;671070;29;1206;-89
2022/07/09 00:46:10;;;;;;;;;;;28.10;43.00;;;;;;673440;29;812;-88
2022/07/09 00:46:33;;;;;;;;;;;28.00;43.60;;;;;;675744;29;1115;-88
2022/07/09 00:46:54;;;;;;;;;;;28.00;43.70;;;;;;673069;29;1110;-88
2022/07/09 00:47:14;;;;;;;;;;;28.10;42.30;;;;;;672508;29;1489;-87
2022/07/09 00:47:35;;;;;;;;;;;28.00;43.70;;;;;;670043;29;1229;-88
2022/07/09 00:47:55;;;;;;;;;;;28.20;42.80;;;;;;668045;29;1126;-88
2022/07/09 00:48:16;;;;;;;;;;;28.10;44.30;;;;;;668661;29;1188;-89
2022/07/09 00:48:37;;;;;;;;;;;27.80;42.20;;;;;;668112;29;1254;-88
2022/07/09 00:49:03;;;;;;;;;;;28.00;43.30;;;;;;670127;29;1371;-89
2022/07/09 00:49:24;;;;;;;;;;;28.00;43.40;;;;;;670680;29;1208;-88
2022/07/09 00:49:45;;;;;;;;;;;28.00;42.70;;;;;;673136;29;1223;-88
2022/07/09 00:50:06;;;;;;;;;;;28.00;43.10;;;;;;674285;29;774;-88
2022/07/09 00:50:26;;;;;;;;;;;28.00;41.60;;;;;;674580;29;1295;-88
2022/07/09 00:50:47;;;;;;;;;;;28.00;42.90;;;;;;673146;29;1114;-88
2022/07/09 00:51:16;;;;;;;;;;;28.40;42.70;;;;;;670894;29;1263;-89
2022/07/09 00:51:38;;;;;;;;;;;28.00;41.50;;;;;;673209;29;1026;-88
2022/07/09 00:51:59;;;;;;;;;;;28.10;42.00;;;;;;670575;29;1087;-88
2022/07/09 00:52:20;;;;;;;;;;;28.00;42.60;;;;;;673228;29;1344;-88
2022/07/09 00:52:41;;;;;;;;;;;28.00;42.10;;;;;;674818;29;1161;-88
2022/07/09 00:53:02;;;;;;;;;;;28.10;43.40;;;;;;672936;29;1482;-89
2022/07/09 00:53:24;;;;;;;;;;;28.00;44.00;;;;;;673046;29;1236;-88
2022/07/09 00:53:46;;;;;;;;;;;28.00;42.30;;;;;;673071;29;1204;-88
2022/07/09 00:54:06;;;;;;;;;;;28.00;42.40;;;;;;671185;29;1180;-88
2022/07/09 00:54:27;;;;;;;;;;;28.00;43.60;;;;;;670296;29;1317;-88
2022/07/09 00:54:48;;;;;;;;;;;28.00;43.60;;;;;;670817;29;1360;-90
2022/07/09 00:55:09;;;;;;;;;;;28.00;41.70;;;;;;670672;29;1397;-89
2022/07/09 00:55:30;;;;;;;;;;;28.00;42.30;;;;;;668092;29;1406;-89
2022/07/09 00:55:51;;;;;;;;;;;28.00;42.50;;;;;;668216;29;920;-87
2022/07/09 00:56:12;;;;;;;;;;;26.20;41.50;;;;;;668617;29;1264;-88
2022/07/09 00:56:33;;;;;;;;;;;27.80;44.20;;;;;;668884;29;1399;-88
2022/07/09 00:56:53;;;;;;;;;;;28.00;42.40;;;;;;670945;29;916;-88
2022/07/09 00:57:15;;;;;;;;;;;28.00;44.20;;;;;;671002;29;1281;-88
2022/07/09 00:57:36;;;;;;;;;;;27.90;42.20;;;;;;673111;29;1891;-88
2022/07/09 00:57:57;;;;;;;;;;;28.00;43.20;;;;;;673739;29;1244;-87
2022/07/09 00:58:18;;;;;;;;;;;28.00;43.50;;;;;;673402;29;1229;-88
2022/07/09 00:58:38;;;;;;;;;;;26.20;42.30;;;;;;670732;29;1278;-89
2022/07/09 00:58:59;;;;;;;;;;;28.00;42.60;;;;;;670856;29;1531;-88
2022/07/09 00:59:21;;;;;;;;;;;28.00;43.50;;;;;;668738;29;1518;-88
2022/07/09 00:59:41;;;;;;;;;;;27.90;43.00;;;;;;671315;29;1239;-88
2022/07/09 01:00:02;;;;;;;;;;;28.00;42.50;;;;;;670749;29;1236;-89
2022/07/09 01:00:23;;;;;;;;;;;28.00;42.50;;;;;;670736;29;1202;-89
2022/07/09 01:00:44;;;;;;;;;;;28.00;43.10;;;;;;668102;29;1281;-88
2022/07/09 01:01:06;;;;;;;;;;;28.00;43.00;;;;;;668199;29;1196;-88
2022/07/09 01:01:27;;;;;;;;;;;27.90;43.20;;;;;;666175;29;1161;-88
2022/07/09 01:01:50;;;;;;;;;;;27.90;42.30;;;;;;666062;29;1250;-88
2022/07/09 01:02:11;;;;;;;;;;;28.00;41.60;;;;;;668120;29;1199;-88
2022/07/09 01:02:33;;;;;;;;;;;28.00;43.20;;;;;;669045;29;1279;-88
2022/07/09 01:02:54;;;;;;;;;;;28.50;43.60;;;;;;668201;29;1355;-88
2022/07/09 01:03:14;;;;;;;;;;;27.90;44.40;;;;;;666427;29;1180;-88
2022/07/09 01:03:35;;;;;;;;;;;28.00;43.50;;;;;;668964;29;1303;-88
2022/07/09 01:03:55;;;;;;;;;;;27.90;44.10;;;;;;671053;29;1378;-86
2022/07/09 01:04:17;;;;;;;;;;;28.00;44.40;;;;;;670161;29;1328;-88
2022/07/09 01:04:39;;;;;;;;;;;27.90;42.20;;;;;;668725;29;1292;-88
2022/07/09 01:04:59;;;;;;;;;;;27.90;46.70;;;;;;669135;29;1375;-88
2022/07/09 01:05:20;;;;;;;;;;;27.90;44.40;;;;;;671027;29;1123;-89
2022/07/09 01:05:41;;;;;;;;;;;27.90;43.30;;;;;;668901;29;1343;-88
2022/07/09 01:06:01;;;;;;;;;;;28.10;44.30;;;;;;668305;29;1130;-88
2022/07/09 01:06:22;;;;;;;;;;;27.90;43.80;;;;;;668043;29;1371;-88
2022/07/09 01:06:42;;;;;;;;;;;27.90;43.60;;;;;;665855;29;1399;-88
2022/07/09 01:07:03;;;;;;;;;;;28.00;45.10;;;;;;663466;29;1257;-89
2022/07/09 01:07:24;;;;;;;;;;;27.90;43.10;;;;;;668386;29;1166;-87
2022/07/09 01:07:45;;;;;;;;;;;27.90;43.30;;;;;;670811;29;1267;-88
2022/07/09 01:08:07;;;;;;;;;;;27.90;43.30;;;;;;668172;29;1110;-89
2022/07/09 01:08:27;;;;;;;;;;;27.20;42.50;;;;;;666098;29;1308;-89
2022/07/09 01:08:48;;;;;;;;;;;27.90;43.60;;;;;;666058;29;1295;-90
2022/07/09 01:09:09;;;;;;;;;;;27.90;43.70;;;;;;665596;29;1311;-88
2022/07/09 01:09:29;;;;;;;;;;;27.90;42.50;;;;;;665745;29;1129;-88
2022/07/09 01:09:50;;;;;;;;;;;25.90;42.40;;;;;;665926;29;1390;-88
2022/07/09 01:10:11;;;;;;;;;;;27.30;43.10;;;;;;665728;29;1578;-88
2022/07/09 01:10:33;;;;;;;;;;;27.90;43.10;;;;;;668382;29;1514;-89
2022/07/09 01:10:54;;;;;;;;;;;27.90;42.20;;;;;;668879;29;1264;-89
2022/07/09 01:11:15;;;;;;;;;;;27.90;43.60;;;;;;668554;29;1310;-88
2022/07/09 01:11:38;;;;;;;;;;;27.90;43.70;;;;;;673219;29;1263;-89
2022/07/09 01:11:59;;;;;;;;;;;27.90;43.10;;;;;;671640;29;1287;-89
2022/07/09 01:12:19;;;;;;;;;;;27.90;44.50;;;;;;672390;29;1261;-88
2022/07/09 01:12:40;;;;;;;;;;;25.90;42.60;;;;;;668214;29;1252;-88
2022/07/09 01:13:02;;;;;;;;;;;27.80;43.80;;;;;;668838;29;1216;-88
2022/07/09 01:13:22;;;;;;;;;;;27.90;42.40;;;;;;668687;29;1405;-88
2022/07/09 01:13:43;;;;;;;;;;;27.90;44.60;;;;;;670513;29;1302;-88
2022/07/09 01:14:03;;;;;;;;;;;27.90;43.70;;;;;;670428;29;1216;-88
2022/07/09 01:14:24;;;;;;;;;;;27.90;43.30;;;;;;670963;29;1266;-88
2022/07/09 01:14:45;;;;;;;;;;;27.90;43.80;;;;;;673412;29;1317;-88
2022/07/09 01:15:06;;;;;;;;;;;27.90;44.50;;;;;;673081;29;1243;-87
2022/07/09 01:15:26;;;;;;;;;;;27.90;42.20;;;;;;670418;29;1394;-88
2022/07/09 01:15:47;;;;;;;;;;;27.90;44.10;;;;;;670544;29;1137;-88
2022/07/09 01:16:14;;;;;;;;;;;27.90;42.30;;;;;;670482;29;1203;-89
2022/07/09 01:16:37;;;;;;;;;;;27.90;41.80;;;;;;670458;29;1161;-88
2022/07/09 01:16:59;;;;;;;;;;;27.80;42.20;;;;;;670555;29;1264;-88
2022/07/09 01:17:20;;;;;;;;;;;27.90;42.20;;;;;;669119;29;1355;-87
2022/07/09 01:17:40;;;;;;;;;;;27.90;43.20;;;;;;665479;29;1970;-88
2022/07/09 01:18:01;;;;;;;;;;;27.90;42.70;;;;;;667867;29;1489;-88
2022/07/09 01:18:22;;;;;;;;;;;27.90;45.00;;;;;;666280;29;1110;-88
2022/07/09 01:18:46;;;;;;;;;;;27.80;43.90;;;;;;665954;29;1130;-88
2022/07/09 01:19:08;;;;;;;;;;;27.90;41.80;;;;;;665316;29;1486;-88
2022/07/09 01:19:29;;;;;;;;;;;27.90;43.30;;;;;;668933;29;1237;-88
2022/07/09 01:19:50;;;;;;;;;;;27.90;43.00;;;;;;669140;29;1353;-88
2022/07/09 01:20:11;;;;;;;;;;;27.80;44.20;;;;;;668996;29;1301;-87
2022/07/09 01:20:32;;;;;;;;;;;27.80;43.70;;;;;;671540;29;1504;-88
2022/07/09 01:20:52;;;;;;;;;;;27.90;43.00;;;;;;670390;29;1335;-87
2022/07/09 01:21:13;;;;;;;;;;;27.90;45.00;;;;;;670506;29;1263;-88
2022/07/09 01:21:34;;;;;;;;;;;27.80;42.60;;;;;;667893;29;1381;-88
2022/07/09 01:21:55;;;;;;;;;;;28.00;44.00;;;;;;668325;29;1196;-89
2022/07/09 01:22:16;;;;;;;;;;;27.80;41.80;;;;;;667995;29;1225;-87
2022/07/09 01:22:37;;;;;;;;;;;27.90;43.00;;;;;;665806;29;1225;-88
2022/07/09 01:22:58;;;;;;;;;;;27.80;44.00;;;;;;668486;29;1342;-88
2022/07/09 01:23:18;;;;;;;;;;;27.80;42.50;;;;;;670995;29;833;-88
2022/07/09 01:23:39;;;;;;;;;;;27.90;43.30;;;;;;669992;29;1228;-89
2022/07/09 01:24:00;;;;;;;;;;;27.80;42.40;;;;;;670921;29;1220;-88
2022/07/09 01:24:21;;;;;;;;;;;27.90;42.90;;;;;;670918;29;1180;-87
2022/07/09 01:24:42;;;;;;;;;;;27.90;43.20;;;;;;670416;29;1322;-87
2022/07/09 01:25:04;;;;;;;;;;;27.80;43.70;;;;;;670461;29;1185;-88
2022/07/09 01:25:35;;;;;;;;;;;27.90;41.90;;;;;;671102;29;1346;-87
2022/07/09 01:25:56;;;;;;;;;;;27.80;41.60;;;;;;670460;29;1247;-88
2022/07/09 01:26:19;;;;;;;;;;;27.90;42.30;;;;;;672227;29;1480;-87
2022/07/09 01:26:40;;;;;;;;;;;27.90;43.10;;;;;;670447;29;1245;-88
2022/07/09 01:27:02;;;;;;;;;;;27.80;44.30;;;;;;670441;29;778;-87
2022/07/09 01:27:22;;;;;;;;;;;27.90;43.20;;;;;;669984;29;1177;-87
2022/07/09 01:27:43;;;;;;;;;;;27.90;43.70;;;;;;668748;29;1280;-88
2022/07/09 01:28:05;;;;;;;;;;;27.80;43.40;;;;;;670462;29;1106;-87
2022/07/09 01:28:26;;;;;;;;;;;27.90;42.50;;;;;;671483;29;1235;-88
2022/07/09 01:28:47;;;;;;;;;;;27.90;43.80;;;;;;670501;29;1279;-87
2022/07/09 01:29:08;;;;;;;;;;;27.90;42.20;;;;;;669904;29;1108;-89
2022/07/09 01:29:28;;;;;;;;;;;27.90;44.00;;;;;;671042;29;1239;-89
2022/07/09 01:29:49;;;;;;;;;;;27.90;43.50;;;;;;670415;29;1329;-88
2022/07/09 01:30:10;;;;;;;;;;;27.80;42.60;;;;;;673023;29;1180;-87
2022/07/09 01:30:31;;;;;;;;;;;29.00;43.00;;;;;;673532;29;1184;-88
2022/07/09 01:30:52;;;;;;;;;;;27.80;42.60;;;;;;670282;29;1259;-88
2022/07/09 01:31:13;;;;;;;;;;;27.90;43.60;;;;;;668313;29;1275;-88
2022/07/09 01:31:33;;;;;;;;;;;27.90;44.20;;;;;;670611;29;1220;-88
2022/07/09 01:31:54;;;;;;;;;;;27.80;43.10;;;;;;669997;29;1329;-87
2022/07/09 01:32:16;;;;;;;;;;;28.50;42.80;;;;;;665378;29;1178;-88
2022/07/09 01:32:36;;;;;;;;;;;27.80;42.00;;;;;;667946;29;1248;-87
2022/07/09 01:32:57;;;;;;;;;;;27.90;43.40;;;;;;667928;29;1342;-87
2022/07/09 01:33:18;;;;;;;;;;;27.80;44.00;;;;;;668334;29;1300;-88
2022/07/09 01:33:38;;;;;;;;;;;27.80;43.50;;;;;;670713;29;1370;-88
2022/07/09 01:33:59;;;;;;;;;;;27.80;44.10;;;;;;673567;29;1095;-88
2022/07/09 01:34:20;;;;;;;;;;;27.80;43.40;;;;;;672972;29;1390;-88
2022/07/09 01:34:40;;;;;;;;;;;27.80;44.20;;;;;;670403;29;1334;-87
2022/07/09 01:35:01;;;;;;;;;;;27.90;44.20;;;;;;670493;29;1396;-88
2022/07/09 01:35:22;;;;;;;;;;;27.80;46.10;;;;;;667525;29;1198;-87
2022/07/09 01:35:43;;;;;;;;;;;27.90;44.20;;;;;;665630;29;1273;-88
2022/07/09 01:36:03;;;;;;;;;;;26.20;43.20;;;;;;668277;29;1227;-87
2022/07/09 01:36:24;;;;;;;;;;;27.80;42.60;;;;;;670933;29;770;-87
2022/07/09 01:36:44;;;;;;;;;;;27.90;43.90;;;;;;670471;29;1101;-88
2022/07/09 01:37:05;;;;;;;;;;;27.80;45.50;;;;;;668273;29;1133;-87
2022/07/09 01:37:26;;;;;;;;;;;27.90;43.00;;;;;;670365;29;1968;-88
2022/07/09 01:37:47;;;;;;;;;;;27.90;42.90;;;;;;670520;29;1089;-88
2022/07/09 01:38:07;;;;;;;;;;;27.80;42.30;;;;;;667840;29;1251;-89
2022/07/09 01:38:28;;;;;;;;;;;27.80;43.60;;;;;;668259;29;1277;-88
2022/07/09 01:38:49;;;;;;;;;;;27.90;43.30;;;;;;667962;29;1146;-88
2022/07/09 01:39:09;;;;;;;;;;;27.80;42.80;;;;;;667863;29;1192;-88
2022/07/09 01:39:30;;;;;;;;;;;27.80;43.30;;;;;;665697;29;1374;-87
2022/07/09 01:39:51;;;;;;;;;;;27.90;43.70;;;;;;668153;29;1407;-88
2022/07/09 01:40:11;;;;;;;;;;;25.80;41.60;;;;;;670818;29;1266;-88
2022/07/09 01:40:32;;;;;;;;;;;27.80;41.90;;;;;;673029;29;1127;-88
2022/07/09 01:40:53;;;;;;;;;;;27.80;43.40;;;;;;670810;29;1234;-88
2022/07/09 01:41:13;;;;;;;;;;;27.90;44.00;;;;;;673008;29;1396;-88
2022/07/09 01:41:34;;;;;;;;;;;27.90;44.70;;;;;;672592;29;1125;-87
2022/07/09 01:41:54;;;;;;;;;;;27.90;43.30;;;;;;670325;29;1366;-88
2022/07/09 01:42:17;;;;;;;;;;;27.90;44.00;;;;;;668188;29;1338;-87
2022/07/09 01:42:38;;;;;;;;;;;27.80;42.10;;;;;;671149;29;754;-89
2022/07/09 01:42:58;;;;;;;;;;;27.90;44.30;;;;;;670398;29;1200;-88
2022/07/09 01:43:19;;;;;;;;;;;27.80;44.60;;;;;;668027;29;1234;-87
2022/07/09 01:43:40;;;;;;;;;;;27.90;43.10;;;;;;668446;29;1238;-88
2022/07/09 01:44:00;;;;;;;;;;;27.90;44.30;;;;;;668529;29;1193;-88
2022/07/09 01:44:21;;;;;;;;;;;27.90;43.70;;;;;;667952;29;1269;-88
2022/07/09 01:44:41;;;;;;;;;;;27.90;44.50;;;;;;665356;29;1226;-87
2022/07/09 01:45:02;;;;;;;;;;;27.80;45.20;;;;;;668346;29;1244;-87
2022/07/09 01:45:23;;;;;;;;;;;27.90;45.10;;;;;;668168;29;1293;-88
2022/07/09 01:45:43;;;;;;;;;;;27.80;43.40;;;;;;668195;29;1608;-87
2022/07/09 01:46:04;;;;;;;;;;;27.90;43.10;;;;;;670704;29;1465;-87
2022/07/09 01:46:25;;;;;;;;;;;27.90;44.40;;;;;;670435;29;1387;-87
2022/07/09 01:46:45;;;;;;;;;;;27.10;41.70;;;;;;668010;29;1264;-88
2022/07/09 01:47:06;;;;;;;;;;;27.90;44.30;;;;;;668115;29;1215;-87
2022/07/09 01:47:26;;;;;;;;;;;27.90;43.40;;;;;;667817;29;1325;-87
2022/07/09 01:47:47;;;;;;;;;;;27.90;43.80;;;;;;665340;29;1240;-87
2022/07/09 01:48:08;;;;;;;;;;;28.60;43.70;;;;;;665614;29;1159;-89
2022/07/09 01:48:29;;;;;;;;;;;27.90;44.00;;;;;;665619;29;1218;-88
2022/07/09 01:48:49;;;;;;;;;;;27.90;43.70;;;;;;669964;29;1517;-87
2022/07/09 01:49:10;;;;;;;;;;;27.90;43.60;;;;;;667659;29;1207;-88
2022/07/09 01:49:31;;;;;;;;;;;27.90;43.90;;;;;;670489;29;1369;-88
2022/07/09 01:49:51;;;;;;;;;;;28.00;45.00;;;;;;670692;29;1069;-88
2022/07/09 01:50:12;;;;;;;;;;;27.90;44.20;;;;;;672936;29;1406;-87
2022/07/09 01:50:32;;;;;;;;;;;27.90;43.50;;;;;;670384;29;1276;-88
2022/07/09 01:50:53;;;;;;;;;;;27.90;44.20;;;;;;670512;29;1245;-87
2022/07/09 01:51:15;;;;;;;;;;;27.40;43.40;;;;;;670795;29;1367;-87
2022/07/09 01:51:35;;;;;;;;;;;27.90;43.20;;;;;;673430;29;1303;-88
2022/07/09 01:51:56;;;;;;;;;;;27.90;43.20;;;;;;672500;29;1249;-89
2022/07/09 01:52:17;;;;;;;;;;;28.00;43.10;;;;;;668372;29;1113;-88
2022/07/09 01:52:37;;;;;;;;;;;27.90;43.70;;;;;;673124;29;1120;-88
2022/07/09 01:52:58;;;;;;;;;;;28.00;43.50;;;;;;672616;29;1155;-88
2022/07/09 01:53:18;;;;;;;;;;;27.90;43.40;;;;;;670777;29;1266;-87
2022/07/09 01:53:42;;;;;;;;;;;27.90;43.80;;;;;;670655;29;1118;-88
2022/07/09 01:54:03;;;;;;;;;;;27.90;44.10;;;;;;671054;29;1307;-88
2022/07/09 01:54:23;;;;;;;;;;;27.90;43.60;;;;;;670420;29;1107;-87
2022/07/09 01:54:44;;;;;;;;;;;27.90;43.00;;;;;;669716;29;1212;-86
2022/07/09 01:55:05;;;;;;;;;;;27.90;44.10;;;;;;670323;29;1379;-88
2022/07/09 01:55:25;;;;;;;;;;;27.90;41.70;;;;;;670452;29;1229;-88
2022/07/09 01:55:46;;;;;;;;;;;27.90;43.90;;;;;;667842;29;1185;-88
2022/07/09 01:56:07;;;;;;;;;;;27.90;43.50;;;;;;668131;29;1167;-88
2022/07/09 01:56:28;;;;;;;;;;;28.00;42.30;;;;;;667872;29;1419;-90
2022/07/09 01:56:48;;;;;;;;;;;27.90;44.40;;;;;;667862;29;1234;-88
2022/07/09 01:57:09;;;;;;;;;;;27.90;44.70;;;;;;668149;29;1354;-88
2022/07/09 01:57:30;;;;;;;;;;;28.00;43.10;;;;;;670690;29;1899;-87
2022/07/09 01:57:50;;;;;;;;;;;28.00;43.70;;;;;;670039;29;1258;-88
2022/07/09 01:58:11;;;;;;;;;;;27.90;43.50;;;;;;670702;29;1223;-88
2022/07/09 01:58:31;;;;;;;;;;;27.90;44.50;;;;;;672922;29;1164;-87
2022/07/09 01:58:52;;;;;;;;;;;28.00;44.30;;;;;;670309;29;1193;-88
2022/07/09 01:59:12;;;;;;;;;;;28.00;42.50;;;;;;667838;29;1341;-88
2022/07/09 01:59:33;;;;;;;;;;;28.00;43.70;;;;;;667879;29;1250;-88
2022/07/09 01:59:54;;;;;;;;;;;29.90;45.20;;;;;;667807;29;1274;-88
2022/07/09 02:00:14;;;;;;;;;;;28.00;44.00;;;;;;668076;29;1220;-88
2022/07/09 02:00:35;;;;;;;;;;;28.00;43.80;;;;;;672955;29;1294;-87
2022/07/09 02:00:55;;;;;;;;;;;28.00;43.90;;;;;;673034;29;1341;-87
2022/07/09 02:01:16;;;;;;;;;;;28.00;43.60;;;;;;670573;29;1302;-88
2022/07/09 02:01:37;;;;;;;;;;;27.90;44.70;;;;;;670375;29;1218;-88
2022/07/09 02:01:57;;;;;;;;;;;28.00;44.30;;;;;;667530;29;1191;-87
2022/07/09 02:02:18;;;;;;;;;;;27.90;43.00;;;;;;668165;29;1197;-89
2022/07/09 02:02:39;;;;;;;;;;;27.90;43.90;;;;;;670324;29;1323;-89
2022/07/09 02:02:59;;;;;;;;;;;27.90;43.70;;;;;;670766;29;1165;-88
2022/07/09 02:03:20;;;;;;;;;;;27.90;44.40;;;;;;672669;29;1308;-88
2022/07/09 02:03:40;;;;;;;;;;;28.00;43.60;;;;;;670703;29;1406;-88
2022/07/09 02:04:01;;;;;;;;;;;27.90;43.50;;;;;;670157;29;1349;-88
2022/07/09 02:04:22;;;;;;;;;;;27.90;46.20;;;;;;667469;29;1417;-88
2022/07/09 02:04:42;;;;;;;;;;;28.00;43.10;;;;;;667849;29;1137;-88
2022/07/09 02:05:03;;;;;;;;;;;28.00;43.90;;;;;;670712;29;1303;-88
2022/07/09 02:05:24;;;;;;;;;;;28.00;42.80;;;;;;672840;29;1406;-88